createdAt,value
2019-05-06T00:02:16.635Z,99.90
2019-05-06T00:04:48.172Z,99.90
2019-05-06T00:07:19.423Z,99.90
2019-05-06T00:09:50.938Z,99.90
2019-05-06T00:12:23.935Z,99.90
2019-05-06T00:14:55.797Z,99.90
2019-05-06T00:17:27.185Z,99.90
2019-05-06T00:19:58.459Z,99.90
2019-05-06T00:22:29.838Z,99.90
2019-05-06T00:25:07.986Z,99.90
2019-05-06T00:27:58.319Z,99.90
2019-05-06T00:30:29.669Z,99.90
2019-05-06T00:33:00.951Z,99.90
2019-05-06T00:35:34.162Z,99.90
2019-05-06T00:38:05.328Z,99.90
2019-05-06T00:40:38.710Z,99.90
2019-05-06T00:43:10.777Z,99.90
2019-05-06T00:45:44.190Z,99.90
2019-05-06T00:48:15.348Z,99.90
2019-05-06T00:50:46.944Z,99.90
2019-05-06T00:53:20.549Z,99.90
2019-05-06T00:55:53.829Z,99.90
2019-05-06T00:58:25.452Z,99.90
2019-05-06T01:00:56.876Z,99.90
2019-05-06T01:03:28.112Z,99.90
2019-05-06T01:05:59.756Z,99.90
2019-05-06T01:08:31.278Z,99.90
2019-05-06T01:11:04.156Z,99.90
2019-05-06T01:13:44.037Z,99.90
2019-05-06T01:16:15.913Z,99.90
2019-05-06T01:18:47.151Z,99.90
2019-05-06T01:21:18.796Z,99.90
2019-05-06T01:23:50.486Z,99.90
2019-05-06T01:26:23.690Z,99.90
2019-05-06T01:28:54.996Z,99.90
2019-05-06T01:31:39.825Z,99.90
2019-05-06T01:33:59.355Z,99.90
2019-05-06T01:36:31.059Z,99.90
2019-05-06T01:39:36.379Z,99.90
2019-05-06T01:42:21.086Z,99.90
2019-05-06T01:44:53.888Z,99.90
2019-05-06T01:47:25.471Z,99.90
2019-05-06T01:49:57.986Z,99.90
2019-05-06T01:52:29.375Z,99.90
2019-05-06T01:55:00.678Z,99.90
2019-05-06T01:57:33.780Z,99.90
2019-05-06T02:00:07.883Z,99.90
2019-05-06T02:02:39.471Z,99.90
2019-05-06T02:05:11.351Z,99.90
2019-05-06T02:07:44.115Z,99.90
2019-05-06T02:10:16.651Z,99.90
2019-05-06T02:12:47.981Z,99.90
2019-05-06T02:15:19.446Z,99.90
2019-05-06T02:17:51.062Z,99.90
2019-05-06T02:20:24.497Z,99.90
2019-05-06T02:23:04.063Z,99.90
2019-05-06T02:25:39.985Z,99.90
2019-05-06T02:28:11.302Z,99.90
2019-05-06T02:31:06.434Z,99.90
2019-05-06T02:33:59.014Z,99.90
2019-05-06T02:36:58.605Z,99.90
2019-05-06T02:39:33.908Z,99.90
2019-05-06T02:42:04.851Z,99.90
2019-05-06T02:44:36.284Z,99.90
2019-05-06T02:47:26.625Z,99.90
2019-05-06T02:50:04.408Z,99.90
2019-05-06T02:52:34.915Z,99.90
2019-05-06T02:55:07.305Z,99.90
2019-05-06T02:57:38.781Z,99.90
2019-05-06T03:00:15.166Z,99.90
2019-05-06T03:02:48.161Z,99.90
2019-05-06T03:05:23.510Z,99.90
2019-05-06T03:07:57.581Z,99.90
2019-05-06T03:10:28.067Z,99.90
2019-05-06T03:12:59.714Z,99.90
2019-05-06T03:15:33.538Z,99.90
2019-05-06T03:18:04.340Z,99.90
2019-05-06T03:21:03.646Z,99.90
2019-05-06T03:23:36.495Z,99.90
2019-05-06T03:26:07.913Z,99.90
2019-05-06T03:28:39.358Z,99.90
2019-05-06T03:31:15.499Z,99.90
2019-05-06T03:33:59.730Z,99.90
2019-05-06T03:36:25.892Z,99.90
2019-05-06T03:38:53.563Z,99.90
2019-05-06T03:41:26.750Z,99.90
2019-05-06T03:43:57.989Z,99.90
2019-05-06T03:46:47.221Z,99.90
2019-05-06T03:49:18.880Z,99.90
2019-05-06T03:51:55.988Z,99.90
2019-05-06T03:54:24.045Z,99.90
2019-05-06T03:56:56.755Z,99.90
2019-05-06T03:59:33.323Z,99.90
2019-05-06T04:02:05.443Z,99.90
2019-05-06T04:04:37.945Z,99.90
2019-05-06T04:07:09.830Z,99.90
2019-05-06T04:09:43.939Z,99.90
2019-05-06T04:12:15.343Z,99.90
2019-05-06T04:14:47.255Z,99.90
2019-05-06T04:17:27.850Z,99.90
2019-05-06T04:20:06.711Z,99.90
2019-05-06T04:22:58.222Z,99.90
2019-05-06T04:25:52.699Z,99.90
2019-05-06T04:28:26.264Z,99.90
2019-05-06T04:30:58.007Z,99.90
2019-05-06T04:33:29.660Z,99.90
2019-05-06T04:36:03.613Z,99.90
2019-05-06T04:38:34.874Z,99.90
2019-05-06T04:41:06.395Z,99.90
2019-05-06T04:43:38.490Z,99.90
2019-05-06T04:46:10.260Z,99.90
2019-05-06T04:48:43.357Z,99.90
2019-05-06T04:51:15.267Z,99.90
2019-05-06T04:53:47.412Z,99.90
2019-05-06T04:56:19.072Z,99.90
2019-05-06T04:58:53.560Z,99.90
2019-05-06T05:01:23.841Z,99.90
2019-05-06T05:03:55.967Z,99.90
2019-05-06T05:06:27.381Z,99.90
2019-05-06T05:08:59.018Z,99.90
2019-05-06T05:11:46.629Z,99.90
2019-05-06T05:14:42.179Z,99.90
2019-05-06T05:17:38.946Z,99.90
2019-05-06T05:20:12.684Z,99.90
2019-05-06T05:22:44.230Z,99.90
2019-05-06T05:25:16.070Z,99.90
2019-05-06T05:27:47.442Z,99.90
2019-05-06T05:30:18.903Z,99.90
2019-05-06T05:32:52.079Z,99.90
2019-05-06T05:35:23.739Z,99.90
2019-05-06T05:37:55.645Z,99.90
2019-05-06T05:40:27.119Z,99.90
2019-05-06T05:43:23.490Z,99.90
2019-05-06T05:45:55.046Z,99.90
2019-05-06T05:48:48.411Z,99.90
2019-05-06T05:51:22.124Z,99.90
2019-05-06T05:53:53.662Z,99.90
2019-05-06T05:56:25.240Z,99.90
2019-05-06T05:58:56.701Z,99.90
2019-05-06T06:01:28.317Z,99.90
2019-05-06T06:04:03.028Z,99.90
2019-05-06T06:06:34.271Z,99.90
2019-05-06T06:09:07.500Z,99.90
2019-05-06T06:11:49.650Z,99.90
2019-05-06T06:14:47.518Z,99.90
2019-05-06T06:17:45.232Z,99.90
2019-05-06T06:21:18.771Z,99.90
2019-05-06T06:23:52.887Z,99.90
2019-05-06T06:26:24.515Z,99.90
2019-05-06T06:28:55.871Z,99.90
2019-05-06T06:31:33.950Z,99.90
2019-05-06T06:34:13.008Z,99.90
2019-05-06T06:36:53.853Z,99.90
2019-05-06T06:39:36.751Z,99.90
2019-05-06T06:42:08.288Z,99.90
2019-05-06T06:44:40.020Z,99.90
2019-05-06T06:47:12.989Z,99.90
2019-05-06T06:49:44.974Z,99.90
2019-05-06T06:52:16.420Z,99.90
2019-05-06T06:54:47.837Z,99.90
2019-05-06T06:57:27.154Z,99.90
2019-05-06T07:00:13.559Z,99.90
2019-05-06T07:02:53.465Z,99.90
2019-05-06T07:05:36.675Z,99.90
2019-05-06T07:08:08.464Z,99.90
2019-05-06T07:10:46.380Z,99.90
2019-05-06T07:13:18.592Z,99.90
2019-05-06T07:15:52.007Z,99.90
2019-05-06T07:18:23.698Z,99.90
2019-05-06T07:21:22.605Z,99.90
2019-05-06T07:23:53.996Z,99.20
2019-05-06T07:26:28.891Z,99.80
2019-05-06T07:29:03.974Z,99.90
2019-05-06T07:31:33.375Z,95.00
2019-05-06T07:34:04.897Z,95.80
2019-05-06T07:36:36.399Z,97.20
2019-05-06T07:39:08.901Z,95.40
2019-05-06T07:41:46.217Z,90.60
2019-05-06T07:44:35.481Z,94.90
2019-05-06T07:47:15.761Z,95.30
2019-05-06T07:49:46.743Z,90.60
2019-05-06T07:52:18.275Z,84.10
2019-05-06T07:54:49.727Z,83.10
2019-05-06T07:57:22.056Z,86.20
2019-05-06T07:59:54.658Z,90.50
2019-05-06T08:02:26.183Z,90.40
2019-05-06T08:04:58.561Z,82.80
2019-05-06T08:07:30.344Z,73.70
2019-05-06T08:10:02.327Z,74.60
2019-05-06T08:12:35.035Z,74.30
2019-05-06T08:15:07.815Z,78.00
2019-05-06T08:17:42.512Z,80.20
2019-05-06T08:20:14.942Z,81.90
2019-05-06T08:22:58.043Z,79.10
2019-05-06T08:25:38.234Z,71.50
2019-05-06T08:28:09.675Z,79.40
2019-05-06T08:30:43.186Z,71.10
2019-05-06T08:33:14.760Z,74.40
2019-05-06T08:35:46.194Z,75.80
2019-05-06T08:38:18.237Z,66.70
2019-05-06T08:40:49.787Z,60.30
2019-05-06T08:43:21.950Z,59.70
2019-05-06T08:45:53.531Z,53.40
2019-05-06T08:48:25.980Z,56.30
2019-05-06T08:51:08.871Z,58.00
2019-05-06T08:53:55.919Z,59.50
2019-05-06T08:56:27.475Z,58.10
2019-05-06T08:58:58.813Z,57.00
2019-05-06T09:01:39.038Z,57.30
2019-05-06T09:04:13.680Z,59.30
2019-05-06T09:06:43.609Z,59.80
2019-05-06T09:09:15.486Z,62.80
2019-05-06T09:11:46.917Z,60.70
2019-05-06T09:14:18.735Z,65.90
2019-05-06T09:16:51.377Z,64.50
2019-05-06T09:19:23.613Z,65.10
2019-05-06T09:21:55.002Z,64.80
2019-05-06T09:24:26.510Z,64.60
2019-05-06T09:27:17.896Z,69.20
2019-05-06T09:29:52.333Z,68.40
2019-05-06T09:32:35.892Z,67.60
2019-05-06T09:35:06.611Z,67.70
2019-05-06T09:37:38.214Z,69.50
2019-05-06T09:40:12.701Z,66.70
2019-05-06T09:42:44.326Z,67.90
2019-05-06T09:45:15.976Z,72.30
2019-05-06T09:48:12.870Z,69.90
2019-05-06T09:50:46.743Z,70.80
2019-05-06T09:53:25.257Z,75.10
2019-05-06T09:56:18.666Z,78.80
2019-05-06T09:58:52.756Z,80.70
2019-05-06T10:01:23.420Z,78.80
2019-05-06T10:03:56.226Z,79.00
2019-05-06T10:06:27.768Z,73.50
2019-05-06T10:08:59.484Z,78.00
2019-05-06T10:11:32.894Z,77.30
2019-05-06T10:14:04.575Z,77.20
2019-05-06T10:16:36.306Z,79.00
2019-05-06T10:19:08.068Z,79.60
2019-05-06T10:21:39.495Z,77.10
2019-05-06T10:24:10.952Z,76.40
2019-05-06T10:26:47.265Z,81.20
2019-05-06T10:29:32.608Z,81.10
2019-05-06T10:32:12.113Z,79.60
2019-05-06T10:34:43.841Z,76.60
2019-05-06T10:37:49.939Z,75.50
2019-05-06T10:40:29.913Z,63.70
2019-05-06T10:43:28.824Z,63.40
2019-05-06T10:46:01.834Z,66.60
2019-05-06T10:48:33.672Z,65.50
2019-05-06T10:51:22.756Z,65.40
2019-05-06T10:53:53.924Z,64.40
2019-05-06T10:56:52.833Z,62.40
2019-05-06T10:59:18.498Z,69.70
2019-05-06T11:01:51.926Z,67.90
2019-05-06T11:04:23.733Z,68.20
2019-05-06T11:06:55.274Z,67.90
2019-05-06T11:09:28.072Z,65.30
2019-05-06T11:11:59.519Z,65.50
2019-05-06T11:14:32.939Z,65.40
2019-05-06T11:17:05.217Z,70.10
2019-05-06T11:19:36.820Z,73.10
2019-05-06T11:22:08.259Z,71.00
2019-05-06T11:24:42.054Z,74.80
2019-05-06T11:27:27.652Z,72.80
2019-05-06T11:29:47.843Z,68.80
2019-05-06T11:32:41.117Z,70.20
2019-05-06T11:35:22.810Z,65.50
2019-05-06T11:38:02.672Z,65.40
2019-05-06T11:40:34.391Z,62.30
2019-05-06T11:43:05.924Z,62.10
2019-05-06T11:45:37.741Z,64.50
2019-05-06T11:48:09.100Z,66.50
2019-05-06T11:50:42.849Z,67.10
2019-05-06T11:53:14.403Z,66.00
2019-05-06T11:55:45.935Z,72.50
2019-05-06T11:58:34.867Z,76.50
2019-05-06T12:01:13.474Z,79.80
2019-05-06T12:03:45.106Z,85.90
2019-05-06T12:06:16.863Z,90.30
2019-05-06T12:08:48.319Z,94.30
2019-05-06T12:11:19.795Z,97.10
2019-05-06T12:13:53.286Z,98.80
2019-05-06T12:16:25.968Z,99.90
2019-05-06T12:18:59.948Z,99.90
2019-05-06T12:21:33.046Z,99.90
2019-05-06T12:24:04.115Z,99.90
2019-05-06T12:26:35.838Z,99.90
2019-05-06T12:29:07.300Z,99.90
2019-05-06T12:31:38.735Z,99.90
2019-05-06T12:34:12.416Z,98.20
2019-05-06T12:36:44.191Z,97.90
2019-05-06T12:39:33.162Z,96.10
2019-05-06T12:42:27.066Z,95.80
2019-05-06T12:45:20.214Z,95.20
2019-05-06T12:47:56.054Z,91.90
2019-05-06T12:50:27.576Z,93.30
2019-05-06T12:52:59.028Z,91.20
2019-05-06T12:55:30.562Z,92.80
2019-05-06T12:58:02.980Z,90.70
2019-05-06T13:00:34.738Z,92.50
2019-05-06T13:03:07.011Z,93.40
2019-05-06T13:05:38.485Z,95.30
2019-05-06T13:08:10.348Z,95.40
2019-05-06T13:10:42.215Z,92.00
2019-05-06T13:13:14.416Z,90.00
2019-05-06T13:15:46.332Z,91.90
2019-05-06T13:18:18.124Z,91.50
2019-05-06T13:20:52.095Z,90.90
2019-05-06T13:23:29.051Z,87.50
2019-05-06T13:26:02.046Z,85.30
2019-05-06T13:28:36.518Z,82.90
2019-05-06T13:31:17.246Z,85.60
2019-05-06T13:34:09.865Z,82.60
2019-05-06T13:36:42.784Z,80.20
2019-05-06T13:39:15.422Z,70.20
2019-05-06T13:41:47.042Z,69.60
2019-05-06T13:44:19.791Z,70.00
2019-05-06T13:46:53.716Z,75.90
2019-05-06T13:49:46.882Z,76.90
2019-05-06T13:52:22.958Z,78.70
2019-05-06T13:54:54.591Z,77.30
2019-05-06T13:57:28.903Z,75.60
2019-05-06T13:59:59.133Z,65.80
2019-05-06T14:02:45.750Z,61.20
2019-05-06T14:05:19.042Z,64.30
2019-05-06T14:07:52.692Z,57.40
2019-05-06T14:10:23.919Z,56.50
2019-05-06T14:12:55.395Z,56.70
2019-05-06T14:15:26.913Z,61.30
2019-05-06T14:17:58.300Z,63.80
2019-05-06T14:20:29.794Z,64.10
2019-05-06T14:23:02.270Z,66.50
2019-05-06T14:25:49.964Z,65.90
2019-05-06T14:28:28.097Z,69.20
2019-05-06T14:31:25.700Z,72.40
2019-05-06T14:33:57.518Z,75.70
2019-05-06T14:36:32.163Z,76.30
2019-05-06T14:39:05.367Z,78.80
2019-05-06T14:41:38.944Z,81.50
2019-05-06T14:44:12.218Z,85.10
2019-05-06T14:47:01.467Z,82.60
2019-05-06T14:49:32.833Z,87.80
2019-05-06T14:52:04.337Z,93.70
2019-05-06T14:54:48.968Z,94.60
2019-05-06T14:57:22.765Z,96.30
2019-05-06T14:59:55.940Z,97.60
2019-05-06T15:02:28.327Z,97.70
2019-05-06T15:05:02.756Z,98.80
2019-05-06T15:07:33.988Z,99.40
2019-05-06T15:10:21.982Z,99.70
2019-05-06T15:12:42.664Z,99.60
2019-05-06T15:15:15.453Z,99.20
2019-05-06T15:17:46.888Z,99.90
2019-05-06T15:20:18.613Z,99.90
2019-05-06T15:22:50.080Z,99.90
2019-05-06T15:25:22.246Z,99.90
2019-05-06T15:27:53.707Z,99.90
2019-05-06T15:30:34.138Z,99.90
2019-05-06T15:33:07.836Z,99.90
2019-05-06T15:36:16.476Z,99.90
2019-05-06T15:38:48.004Z,98.80
2019-05-06T15:41:19.461Z,98.70
2019-05-06T15:43:51.369Z,97.70
2019-05-06T15:46:22.894Z,97.80
2019-05-06T15:48:55.181Z,97.90
2019-05-06T15:51:35.973Z,96.70
2019-05-06T15:54:08.180Z,97.20
2019-05-06T15:56:42.094Z,97.60
2019-05-06T15:59:12.744Z,96.90
2019-05-06T16:01:44.283Z,96.60
2019-05-06T16:04:15.952Z,97.50
2019-05-06T16:06:48.801Z,97.10
2019-05-06T16:09:23.171Z,96.50
2019-05-06T16:11:55.038Z,96.30
2019-05-06T16:14:27.125Z,97.50
2019-05-06T16:16:58.647Z,95.90
2019-05-06T16:19:30.111Z,94.70
2019-05-06T16:22:03.902Z,93.20
2019-05-06T16:24:43.091Z,93.50
2019-05-06T16:27:13.762Z,93.40
2019-05-06T16:29:46.204Z,94.00
2019-05-06T16:32:18.012Z,94.30
2019-05-06T16:34:49.461Z,93.00
2019-05-06T16:37:22.262Z,92.90
2019-05-06T16:39:54.620Z,94.30
2019-05-06T16:42:26.210Z,93.40
2019-05-06T16:44:58.986Z,94.90
2019-05-06T16:47:37.312Z,95.60
2019-05-06T16:50:13.213Z,94.60
2019-05-06T16:52:45.516Z,96.30
2019-05-06T16:55:24.381Z,96.80
2019-05-06T16:58:05.547Z,98.30
2019-05-06T17:00:38.387Z,96.70
2019-05-06T17:03:15.893Z,97.60
2019-05-06T17:06:05.277Z,97.40
2019-05-06T17:08:36.844Z,96.20
2019-05-06T17:11:08.358Z,96.30
2019-05-06T17:13:40.087Z,96.00
2019-05-06T17:16:13.855Z,96.70
2019-05-06T17:18:46.121Z,96.10
2019-05-06T17:21:17.491Z,97.30
2019-05-06T17:23:49.041Z,98.20
2019-05-06T17:26:22.481Z,98.40
2019-05-06T17:29:22.809Z,99.80
2019-05-06T17:32:25.415Z,99.90
2019-05-06T17:34:57.837Z,99.90
2019-05-06T17:38:03.848Z,99.90
2019-05-06T17:40:35.616Z,99.90
2019-05-06T17:43:07.056Z,99.90
2019-05-06T17:46:03.135Z,99.90
2019-05-06T17:48:45.873Z,99.90
2019-05-06T17:51:19.555Z,99.90
2019-05-06T17:53:53.096Z,99.90
2019-05-06T17:56:24.928Z,99.90
2019-05-06T17:58:57.145Z,99.90
2019-05-06T18:01:46.135Z,99.90
2019-05-06T18:04:17.860Z,99.90
2019-05-06T18:06:49.431Z,99.90
2019-05-06T18:09:22.353Z,99.90
2019-05-06T18:11:58.823Z,99.90
2019-05-06T18:14:27.474Z,99.90
2019-05-06T18:16:59.039Z,99.90
2019-05-06T18:19:32.906Z,99.90
2019-05-06T18:22:03.886Z,99.90
2019-05-06T18:24:36.391Z,99.90
2019-05-06T18:27:07.892Z,99.90
2019-05-06T18:29:39.198Z,99.90
2019-05-06T18:32:12.632Z,99.90
2019-05-06T18:34:44.031Z,99.90
2019-05-06T18:37:15.420Z,99.90
2019-05-06T18:39:47.044Z,99.90
2019-05-06T18:42:20.345Z,99.90
2019-05-06T18:44:51.580Z,99.90
2019-05-06T18:47:23.093Z,99.90
2019-05-06T18:49:54.404Z,99.90
2019-05-06T18:52:26.121Z,99.90
2019-05-06T18:54:57.726Z,99.90
2019-05-06T18:57:29.168Z,99.90
2019-05-06T19:00:02.953Z,99.90
2019-05-06T19:02:35.438Z,99.90
2019-05-06T19:05:14.324Z,99.90
2019-05-06T19:07:46.939Z,99.90
2019-05-06T19:10:25.412Z,99.90
2019-05-06T19:12:57.046Z,99.90
2019-05-06T19:15:32.751Z,99.90
2019-05-06T19:18:04.599Z,99.90
2019-05-06T19:20:36.033Z,99.90
2019-05-06T19:23:08.779Z,99.90
2019-05-06T19:25:42.695Z,99.90
2019-05-06T19:28:14.545Z,99.90
2019-05-06T19:30:49.279Z,99.90
2019-05-06T19:33:21.017Z,99.90
2019-05-06T19:35:52.556Z,99.90
2019-05-06T19:38:26.833Z,99.90
2019-05-06T19:40:58.863Z,99.90
2019-05-06T19:43:32.771Z,99.90
2019-05-06T19:46:04.535Z,99.90
2019-05-06T19:48:37.367Z,99.90
2019-05-06T19:51:09.116Z,99.90
2019-05-06T19:53:42.721Z,99.90
2019-05-06T19:56:14.058Z,99.90
2019-05-06T19:58:45.460Z,99.90
2019-05-06T20:01:32.321Z,99.90
2019-05-06T20:04:05.810Z,99.90
2019-05-06T20:06:48.293Z,99.90
2019-05-06T20:09:33.031Z,99.90
2019-05-06T20:12:07.520Z,99.90
2019-05-06T20:14:38.889Z,99.90
2019-05-06T20:17:10.323Z,99.90
2019-05-06T20:19:42.548Z,99.90
2019-05-06T20:22:14.319Z,99.90
2019-05-06T20:24:46.117Z,99.90
2019-05-06T20:27:17.455Z,99.90
2019-05-06T20:29:49.068Z,99.90
2019-05-06T20:32:22.570Z,99.90
2019-05-06T20:34:53.667Z,99.90
2019-05-06T20:37:25.127Z,99.90
2019-05-06T20:39:57.057Z,99.90
2019-05-06T20:42:28.534Z,99.90
2019-05-06T20:45:02.037Z,99.90
2019-05-06T20:47:33.200Z,99.90
2019-05-06T20:50:05.138Z,99.90
2019-05-06T20:52:37.362Z,99.90
2019-05-06T20:55:15.898Z,99.90
2019-05-06T20:57:43.382Z,99.90
2019-05-06T21:00:15.011Z,99.90
2019-05-06T21:02:46.682Z,99.90
2019-05-06T21:05:18.642Z,99.90
2019-05-06T21:07:52.399Z,99.90
2019-05-06T21:10:23.625Z,99.90
2019-05-06T21:12:54.935Z,99.90
2019-05-06T21:15:26.392Z,99.90
2019-05-06T21:18:01.383Z,99.90
2019-05-06T21:20:33.002Z,99.90
2019-05-06T21:23:05.001Z,99.90
2019-05-06T21:25:36.446Z,99.90
2019-05-06T21:28:07.799Z,99.90
2019-05-06T21:30:39.207Z,99.90
2019-05-06T21:33:12.392Z,99.90
2019-05-06T21:35:43.709Z,99.90
2019-05-06T21:38:15.141Z,99.90
2019-05-06T21:40:46.665Z,99.90
2019-05-06T21:43:17.972Z,99.90
2019-05-06T21:45:49.346Z,99.90
2019-05-06T21:48:22.201Z,99.90
2019-05-06T21:50:53.666Z,99.90
2019-05-06T21:53:25.406Z,99.90
2019-05-06T21:55:57.019Z,99.90
2019-05-06T21:58:28.385Z,99.90
2019-05-06T22:01:05.296Z,99.90
2019-05-06T22:03:38.349Z,99.90
2019-05-06T22:06:09.787Z,99.90
2019-05-06T22:08:42.376Z,99.90
2019-05-06T22:11:13.932Z,99.90
2019-05-06T22:13:58.006Z,99.90
2019-05-06T22:16:18.797Z,99.90
2019-05-06T22:18:50.134Z,99.90
2019-05-06T22:21:23.871Z,99.90
2019-05-06T22:23:57.071Z,99.90
2019-05-06T22:26:29.490Z,99.90
2019-05-06T22:29:02.020Z,99.90
2019-05-06T22:31:33.623Z,99.90
2019-05-06T22:34:05.462Z,99.90
2019-05-06T22:36:36.760Z,99.90
2019-05-06T22:39:08.320Z,99.90
2019-05-06T22:41:41.321Z,99.90
2019-05-06T22:44:14.233Z,99.90
2019-05-06T22:46:45.817Z,99.90
2019-05-06T22:49:17.577Z,99.90
2019-05-06T22:51:52.041Z,99.90
2019-05-06T22:54:24.622Z,99.90
2019-05-06T22:56:56.100Z,99.90
2019-05-06T22:59:27.540Z,99.90
2019-05-06T23:02:32.931Z,99.90
2019-05-06T23:05:04.680Z,99.90
2019-05-06T23:07:36.397Z,99.90
2019-05-06T23:10:08.100Z,99.90
2019-05-06T23:12:39.796Z,99.90
2019-05-06T23:15:12.090Z,99.90
2019-05-06T23:17:43.913Z,99.90
2019-05-06T23:20:15.627Z,99.90
2019-05-06T23:22:47.181Z,99.90
2019-05-06T23:25:18.749Z,99.90
2019-05-06T23:27:50.195Z,99.90
2019-05-06T23:30:23.604Z,99.90
2019-05-06T23:32:54.768Z,99.90
2019-05-06T23:35:26.134Z,99.90
2019-05-06T23:38:52.446Z,99.90
2019-05-06T23:42:18.174Z,99.90
2019-05-06T23:45:43.509Z,99.90
2019-05-06T23:49:09.144Z,99.90
2019-05-06T23:52:34.455Z,99.90
2019-05-06T23:56:02.623Z,99.90
2019-05-06T23:58:33.267Z,99.90
